createdAt,value
2019-03-19T00:00:33.455Z,5.79
2019-03-19T00:01:33.464Z,5.80
2019-03-19T00:02:33.433Z,5.74
2019-03-19T00:03:33.426Z,5.79
2019-03-19T00:04:33.420Z,5.71
2019-03-19T00:05:33.444Z,5.68
2019-03-19T00:06:33.430Z,5.79
2019-03-19T00:07:33.379Z,5.72
2019-03-19T00:08:33.375Z,5.68
2019-03-19T00:09:33.357Z,5.71
2019-03-19T00:10:33.353Z,5.79
2019-03-19T00:11:33.335Z,5.69
2019-03-19T00:12:33.356Z,5.74
2019-03-19T00:13:33.314Z,5.74
2019-03-19T00:14:33.304Z,5.65
2019-03-19T00:15:33.288Z,5.62
2019-03-19T00:16:33.283Z,5.67
2019-03-19T00:17:33.309Z,5.68
2019-03-19T00:18:33.262Z,5.62
2019-03-19T00:19:33.262Z,5.67
2019-03-19T00:20:33.240Z,5.71
2019-03-19T00:21:33.239Z,5.76
2019-03-19T00:22:33.245Z,5.68
2019-03-19T00:23:33.201Z,5.64
2019-03-19T00:24:33.191Z,5.71
2019-03-19T00:25:33.192Z,5.71
2019-03-19T00:26:33.177Z,5.76
2019-03-19T00:27:33.193Z,5.71
2019-03-19T00:28:33.167Z,5.69
2019-03-19T00:29:33.141Z,5.72
2019-03-19T00:30:33.133Z,5.76
2019-03-19T00:31:33.117Z,5.69
2019-03-19T00:32:33.139Z,5.58
2019-03-19T00:33:33.095Z,5.65
2019-03-19T00:34:33.103Z,5.61
2019-03-19T00:35:33.071Z,5.61
2019-03-19T00:36:33.069Z,5.51
2019-03-19T00:37:33.069Z,5.59
2019-03-19T00:38:33.040Z,5.59
2019-03-19T00:39:33.039Z,5.57
2019-03-19T00:40:33.015Z,5.61
2019-03-19T00:41:33.008Z,5.51
2019-03-19T00:42:33.017Z,5.51
2019-03-19T00:43:32.995Z,5.51
2019-03-19T00:44:32.981Z,5.64
2019-03-19T00:45:32.981Z,5.67
2019-03-19T00:46:32.950Z,5.59
2019-03-19T00:47:33.046Z,5.62
2019-03-19T00:48:32.931Z,5.58
2019-03-19T00:49:32.940Z,5.47
2019-03-19T00:50:32.915Z,5.59
2019-03-19T00:51:32.900Z,5.49
2019-03-19T00:52:32.888Z,5.46
2019-03-19T00:53:32.901Z,5.61
2019-03-19T00:54:32.868Z,5.50
2019-03-19T00:55:40.659Z,5.51
2019-03-19T00:56:33.847Z,5.36
2019-03-19T00:57:32.831Z,5.39
2019-03-19T00:58:32.857Z,5.42
2019-03-19T00:59:32.812Z,5.43
2019-03-19T01:00:32.813Z,5.44
2019-03-19T01:01:32.800Z,5.46
2019-03-19T01:02:32.791Z,5.40
2019-03-19T01:03:32.789Z,5.44
2019-03-19T01:04:32.758Z,5.40
2019-03-19T01:05:32.748Z,5.44
2019-03-19T01:06:32.737Z,5.43
2019-03-19T01:07:32.727Z,5.36
2019-03-19T01:08:32.740Z,5.33
2019-03-19T01:09:32.735Z,5.31
2019-03-19T01:10:32.690Z,5.33
2019-03-19T01:11:32.679Z,5.31
2019-03-19T01:12:32.676Z,5.32
2019-03-19T01:13:32.691Z,5.36
2019-03-19T01:14:32.649Z,5.28
2019-03-19T01:15:32.637Z,5.32
2019-03-19T01:16:32.625Z,5.32
2019-03-19T01:17:32.612Z,5.33
2019-03-19T01:18:32.631Z,5.29
2019-03-19T01:19:32.601Z,5.42
2019-03-19T01:20:32.597Z,5.32
2019-03-19T01:21:32.585Z,5.29
2019-03-19T01:22:34.989Z,5.31
2019-03-19T01:23:32.569Z,5.33
2019-03-19T01:24:32.544Z,5.31
2019-03-19T01:25:32.528Z,5.39
2019-03-19T01:26:32.514Z,5.47
2019-03-19T01:27:32.586Z,5.44
2019-03-19T01:28:32.541Z,5.39
2019-03-19T01:29:32.494Z,5.44
2019-03-19T01:30:32.472Z,5.40
2019-03-19T01:31:32.463Z,5.43
2019-03-19T01:32:32.451Z,5.44
2019-03-19T01:33:32.456Z,5.42
2019-03-19T01:34:32.435Z,5.46
2019-03-19T01:35:32.454Z,5.42
2019-03-19T01:36:32.410Z,5.50
2019-03-19T01:37:32.431Z,5.57
2019-03-19T01:38:32.400Z,5.53
2019-03-19T01:39:32.695Z,5.51
2019-03-19T01:40:32.369Z,5.58
2019-03-19T01:41:32.364Z,5.46
2019-03-19T01:42:32.364Z,5.57
2019-03-19T01:43:32.380Z,5.46
2019-03-19T01:44:32.324Z,5.49
2019-03-19T01:45:32.318Z,5.49
2019-03-19T01:46:32.304Z,5.53
2019-03-19T01:47:32.299Z,5.51
2019-03-19T01:48:32.294Z,5.54
2019-03-19T01:49:32.270Z,5.49
2019-03-19T01:50:32.258Z,5.49
2019-03-19T01:51:32.254Z,5.51
2019-03-19T01:52:32.234Z,5.47
2019-03-19T01:53:32.240Z,5.44
2019-03-19T01:54:32.221Z,5.50
2019-03-19T01:55:32.215Z,5.53
2019-03-19T01:56:32.187Z,5.57
2019-03-19T01:57:32.194Z,5.47
2019-03-19T01:58:32.188Z,5.50
2019-03-19T01:59:32.166Z,5.44
2019-03-19T02:00:32.152Z,5.42
2019-03-19T02:01:32.131Z,5.43
2019-03-19T02:02:32.126Z,5.42
2019-03-19T02:03:32.131Z,5.44
2019-03-19T02:04:32.107Z,5.40
2019-03-19T02:05:32.091Z,5.42
2019-03-19T02:06:32.083Z,5.36
2019-03-19T02:07:32.077Z,5.29
2019-03-19T02:08:32.134Z,5.36
2019-03-19T02:09:32.211Z,5.33
2019-03-19T02:10:32.036Z,5.32
2019-03-19T02:11:32.053Z,5.31
2019-03-19T02:12:32.017Z,5.36
2019-03-19T02:13:32.028Z,5.40
2019-03-19T02:14:31.995Z,5.42
2019-03-19T02:15:31.978Z,5.40
2019-03-19T02:16:31.974Z,5.43
2019-03-19T02:17:31.955Z,5.43
2019-03-19T02:18:31.966Z,5.49
2019-03-19T02:19:31.945Z,5.42
2019-03-19T02:20:31.928Z,5.43
2019-03-19T02:21:31.929Z,5.44
2019-03-19T02:22:31.914Z,5.44
2019-03-19T02:23:31.917Z,5.49
2019-03-19T02:24:31.884Z,5.49
2019-03-19T02:25:31.887Z,5.58
2019-03-19T02:26:31.880Z,5.54
2019-03-19T02:27:31.855Z,5.51
2019-03-19T02:28:31.865Z,5.42
2019-03-19T02:29:31.833Z,5.44
2019-03-19T02:30:31.816Z,5.42
2019-03-19T02:31:31.815Z,5.49
2019-03-19T02:32:31.787Z,5.51
2019-03-19T02:33:31.807Z,5.46
2019-03-19T02:34:31.771Z,5.53
2019-03-19T02:35:31.781Z,5.44
2019-03-19T02:36:31.755Z,5.53
2019-03-19T02:37:31.744Z,5.44
2019-03-19T02:38:31.766Z,5.53
2019-03-19T02:39:31.829Z,5.49
2019-03-19T02:40:31.715Z,5.57
2019-03-19T02:41:31.694Z,5.58
2019-03-19T02:42:31.698Z,5.39
2019-03-19T02:43:31.711Z,5.36
2019-03-19T02:44:31.675Z,5.31
2019-03-19T02:45:31.666Z,5.25
2019-03-19T02:46:31.640Z,5.22
2019-03-19T02:47:31.636Z,5.19
2019-03-19T02:48:31.625Z,5.14
2019-03-19T02:49:31.617Z,5.21
2019-03-19T02:50:31.610Z,5.17
2019-03-19T02:51:31.585Z,5.19
2019-03-19T02:52:31.574Z,5.16
2019-03-19T02:53:31.571Z,5.17
2019-03-19T02:54:31.572Z,5.22
2019-03-19T02:55:31.543Z,5.22
2019-03-19T02:56:33.462Z,5.13
2019-03-19T02:57:31.544Z,5.16
2019-03-19T02:58:31.513Z,5.16
2019-03-19T02:59:31.522Z,5.13
2019-03-19T03:00:31.501Z,5.11
2019-03-19T03:01:31.477Z,5.17
2019-03-19T03:02:31.488Z,5.24
2019-03-19T03:03:31.455Z,5.13
2019-03-19T03:04:31.462Z,5.19
2019-03-19T03:05:31.565Z,5.21
2019-03-19T03:06:31.430Z,5.22
2019-03-19T03:07:31.413Z,5.22
2019-03-19T03:08:31.429Z,5.13
2019-03-19T03:09:31.423Z,5.17
2019-03-19T03:10:31.385Z,5.14
2019-03-19T03:11:31.366Z,5.11
2019-03-19T03:12:31.372Z,5.17
2019-03-19T03:13:31.351Z,5.13
2019-03-19T03:14:31.371Z,5.16
2019-03-19T03:15:31.322Z,5.11
2019-03-19T03:16:31.308Z,5.19
2019-03-19T03:17:31.320Z,5.13
2019-03-19T03:18:31.289Z,5.07
2019-03-19T03:19:31.335Z,5.14
2019-03-19T03:20:31.280Z,5.14
2019-03-19T03:21:34.502Z,5.14
2019-03-19T03:22:31.240Z,5.13
2019-03-19T03:23:31.232Z,5.13
2019-03-19T03:24:31.244Z,5.14
2019-03-19T03:25:31.232Z,5.08
2019-03-19T03:26:31.203Z,5.11
2019-03-19T03:27:31.210Z,5.06
2019-03-19T03:28:31.188Z,5.11
2019-03-19T03:29:31.185Z,5.16
2019-03-19T03:30:31.173Z,5.13
2019-03-19T03:31:31.144Z,5.14
2019-03-19T03:32:31.135Z,5.16
2019-03-19T03:33:31.222Z,5.14
2019-03-19T03:34:31.129Z,5.07
2019-03-19T03:35:31.102Z,5.13
2019-03-19T03:36:31.102Z,5.03
2019-03-19T03:37:31.076Z,5.07
2019-03-19T03:38:31.066Z,5.07
2019-03-19T03:39:31.075Z,5.03
2019-03-19T03:40:31.046Z,5.06
2019-03-19T03:41:31.038Z,5.03
2019-03-19T03:42:31.021Z,5.07
2019-03-19T03:43:31.041Z,5.04
2019-03-19T03:44:31.050Z,5.06
2019-03-19T03:45:30.999Z,5.06
2019-03-19T03:46:30.977Z,5.10
2019-03-19T03:47:30.970Z,5.13
2019-03-19T03:48:30.961Z,5.16
2019-03-19T03:49:30.966Z,5.13
2019-03-19T03:50:30.931Z,5.17
2019-03-19T03:51:30.924Z,5.16
2019-03-19T03:52:30.912Z,5.19
2019-03-19T03:53:30.911Z,5.22
2019-03-19T03:54:30.903Z,5.13
2019-03-19T03:55:31.334Z,5.13
2019-03-19T03:56:30.864Z,5.11
2019-03-19T03:57:30.880Z,5.08
2019-03-19T03:58:30.918Z,5.07
2019-03-19T03:59:30.861Z,5.07
2019-03-19T04:00:30.828Z,5.07
2019-03-19T04:01:30.826Z,5.13
2019-03-19T04:02:30.801Z,5.11
2019-03-19T04:03:30.836Z,5.07
2019-03-19T04:04:30.802Z,5.11
2019-03-19T04:05:30.797Z,5.13
2019-03-19T04:06:30.778Z,5.11
2019-03-19T04:07:30.746Z,5.14
2019-03-19T04:08:30.733Z,5.16
2019-03-19T04:09:30.775Z,5.13
2019-03-19T04:10:30.724Z,5.19
2019-03-19T04:11:30.703Z,5.16
2019-03-19T04:12:30.693Z,5.19
2019-03-19T04:13:30.679Z,5.13
2019-03-19T04:14:30.674Z,5.14
2019-03-19T04:15:30.669Z,5.11
2019-03-19T04:16:30.645Z,5.16
2019-03-19T04:17:30.638Z,5.19
2019-03-19T04:18:30.643Z,5.13
2019-03-19T04:19:30.625Z,5.21
2019-03-19T04:20:30.626Z,5.26
2019-03-19T04:21:30.598Z,5.21
2019-03-19T04:22:30.600Z,5.26
2019-03-19T04:23:30.580Z,5.24
2019-03-19T04:24:30.560Z,5.22
2019-03-19T04:25:30.568Z,5.17
2019-03-19T04:26:30.538Z,5.10
2019-03-19T04:27:30.532Z,5.14
2019-03-19T04:28:30.524Z,5.14
2019-03-19T04:29:30.510Z,5.07
2019-03-19T04:30:30.518Z,5.06
2019-03-19T04:31:30.485Z,5.06
2019-03-19T04:32:30.476Z,5.08
2019-03-19T04:33:30.476Z,4.99
2019-03-19T04:34:30.461Z,5.03
2019-03-19T04:35:30.456Z,5.07
2019-03-19T04:36:30.438Z,5.07
2019-03-19T04:37:30.420Z,5.07
2019-03-19T04:38:30.420Z,5.07
2019-03-19T04:39:30.400Z,5.07
2019-03-19T04:40:30.428Z,5.07
2019-03-19T04:41:30.383Z,5.11
2019-03-19T04:42:30.363Z,5.04
2019-03-19T04:43:30.362Z,5.08
2019-03-19T04:44:30.361Z,5.13
2019-03-19T04:45:30.326Z,5.11
2019-03-19T04:46:30.340Z,5.16
2019-03-19T04:47:30.311Z,5.17
2019-03-19T04:48:30.301Z,5.17
2019-03-19T04:49:30.296Z,5.08
2019-03-19T04:50:30.290Z,5.16
2019-03-19T04:51:30.306Z,5.19
2019-03-19T04:52:30.267Z,5.16
2019-03-19T04:53:30.246Z,5.14
2019-03-19T04:54:30.240Z,5.22
2019-03-19T04:55:30.221Z,5.14
2019-03-19T04:56:30.223Z,5.28
2019-03-19T04:57:30.204Z,5.31
2019-03-19T04:58:30.186Z,5.21
2019-03-19T04:59:30.178Z,5.22
2019-03-19T05:00:30.159Z,5.24
2019-03-19T05:01:30.180Z,5.28
2019-03-19T05:02:30.147Z,5.22
2019-03-19T05:03:30.133Z,5.19
2019-03-19T05:04:30.223Z,5.26
2019-03-19T05:05:30.113Z,5.26
2019-03-19T05:06:30.127Z,5.28
2019-03-19T05:07:30.108Z,5.26
2019-03-19T05:08:30.078Z,5.24
2019-03-19T05:09:30.067Z,5.24
2019-03-19T05:10:30.059Z,5.19
2019-03-19T05:11:30.083Z,5.26
2019-03-19T05:12:30.033Z,5.24
2019-03-19T05:13:30.033Z,5.26
2019-03-19T05:14:30.021Z,5.22
2019-03-19T05:15:29.998Z,5.28
2019-03-19T05:16:30.001Z,5.24
2019-03-19T05:17:30.001Z,5.19
2019-03-19T05:18:31.382Z,5.29
2019-03-19T05:19:29.966Z,5.19
2019-03-19T05:20:29.948Z,5.16
2019-03-19T05:21:29.936Z,5.24
2019-03-19T05:22:29.950Z,5.17
2019-03-19T05:23:29.913Z,5.29
2019-03-19T05:24:29.907Z,5.31
2019-03-19T05:25:29.909Z,5.19
2019-03-19T05:26:29.881Z,5.25
2019-03-19T05:27:37.369Z,5.24
2019-03-19T05:28:30.877Z,5.24
2019-03-19T05:29:29.853Z,5.25
2019-03-19T05:30:29.847Z,5.32
2019-03-19T05:31:29.825Z,5.25
2019-03-19T05:32:30.818Z,5.26
2019-03-19T05:33:29.802Z,5.33
2019-03-19T05:34:29.800Z,5.24
2019-03-19T05:35:29.789Z,5.29
2019-03-19T05:36:29.773Z,5.24
2019-03-19T05:37:29.781Z,5.26
2019-03-19T05:38:29.746Z,5.22
2019-03-19T05:39:29.740Z,5.21
2019-03-19T05:40:29.744Z,5.21
2019-03-19T05:41:29.726Z,5.21
2019-03-19T05:42:29.733Z,5.21
2019-03-19T05:43:29.695Z,5.29
2019-03-19T05:44:29.683Z,5.25
2019-03-19T05:45:29.676Z,5.22
2019-03-19T05:46:29.670Z,5.26
2019-03-19T05:47:36.975Z,5.25
2019-03-19T05:48:30.709Z,5.29
2019-03-19T05:49:29.619Z,5.26
2019-03-19T05:50:29.619Z,5.29
2019-03-19T05:51:29.662Z,5.29
2019-03-19T05:52:29.627Z,5.25
2019-03-19T05:53:29.581Z,5.28
2019-03-19T05:54:29.576Z,5.31
2019-03-19T05:55:29.559Z,5.28
2019-03-19T05:56:29.548Z,5.28
2019-03-19T05:57:29.543Z,5.29
2019-03-19T05:58:29.570Z,5.33
2019-03-19T05:59:29.516Z,5.39
2019-03-19T06:00:29.507Z,5.40
2019-03-19T06:01:29.499Z,5.31
2019-03-19T06:02:29.478Z,5.32
2019-03-19T06:03:29.496Z,5.28
2019-03-19T06:04:29.466Z,5.25
2019-03-19T06:05:29.481Z,5.28
2019-03-19T06:06:29.435Z,5.31
2019-03-19T06:07:29.429Z,5.25
2019-03-19T06:08:29.445Z,5.36
2019-03-19T06:09:29.408Z,5.25
2019-03-19T06:10:29.391Z,5.28
2019-03-19T06:11:29.390Z,5.39
2019-03-19T06:12:29.370Z,5.32
2019-03-19T06:13:29.385Z,5.31
2019-03-19T06:14:29.350Z,5.32
2019-03-19T06:15:29.348Z,5.36
2019-03-19T06:16:29.327Z,5.39
2019-03-19T06:17:29.314Z,5.39
2019-03-19T06:18:35.002Z,5.32
2019-03-19T06:19:30.310Z,5.40
2019-03-19T06:20:29.290Z,5.43
2019-03-19T06:21:29.274Z,5.31
2019-03-19T06:22:29.256Z,5.32
2019-03-19T06:23:29.309Z,5.26
2019-03-19T06:24:29.238Z,5.21
2019-03-19T06:25:29.241Z,5.22
2019-03-19T06:26:29.227Z,5.29
2019-03-19T06:27:29.208Z,5.31
2019-03-19T06:28:29.228Z,5.40
2019-03-19T06:29:29.181Z,5.39
2019-03-19T06:30:29.193Z,5.46
2019-03-19T06:31:29.171Z,5.40
2019-03-19T06:32:29.152Z,5.42
2019-03-19T06:33:29.180Z,5.39
2019-03-19T06:34:29.129Z,5.47
2019-03-19T06:35:29.115Z,5.54
2019-03-19T06:36:29.110Z,5.51
2019-03-19T06:37:29.114Z,5.57
2019-03-19T06:38:29.094Z,5.49
2019-03-19T06:39:29.104Z,5.53
2019-03-19T06:40:29.064Z,5.53
2019-03-19T06:41:29.126Z,5.49
2019-03-19T06:42:29.030Z,5.51
2019-03-19T06:43:29.026Z,5.57
2019-03-19T06:44:29.050Z,5.53
2019-03-19T06:45:29.002Z,5.61
2019-03-19T06:46:28.996Z,5.54
2019-03-19T06:47:28.979Z,5.65
2019-03-19T06:48:28.975Z,5.58
2019-03-19T06:49:29.026Z,5.59
2019-03-19T06:50:28.974Z,5.67
2019-03-19T06:51:28.938Z,5.69
2019-03-19T06:52:28.922Z,5.67
2019-03-19T06:53:28.914Z,5.65
2019-03-19T06:54:28.982Z,5.65
2019-03-19T06:55:28.930Z,5.71
2019-03-19T06:56:28.914Z,5.72
2019-03-19T06:57:38.882Z,5.67
2019-03-19T06:58:29.903Z,5.67
2019-03-19T06:59:28.892Z,5.68
2019-03-19T07:00:28.852Z,5.72
2019-03-19T07:01:28.905Z,5.69
2019-03-19T07:02:28.888Z,5.71
2019-03-19T07:03:28.808Z,5.76
2019-03-19T07:04:28.829Z,5.80
2019-03-19T07:05:28.812Z,5.83
2019-03-19T07:06:28.816Z,5.90
2019-03-19T07:07:28.785Z,5.92
2019-03-19T07:08:28.753Z,6.05
2019-03-19T07:09:28.778Z,6.00
2019-03-19T07:10:28.732Z,6.03
2019-03-19T07:11:28.746Z,6.07
2019-03-19T07:12:28.722Z,6.13
2019-03-19T07:13:28.700Z,6.16
2019-03-19T07:14:28.717Z,6.22
2019-03-19T07:15:28.703Z,6.16
2019-03-19T07:16:28.686Z,6.18
2019-03-19T07:17:28.689Z,6.15
2019-03-19T07:18:28.671Z,6.22
2019-03-19T07:19:28.714Z,6.22
2019-03-19T07:20:28.623Z,6.22
2019-03-19T07:21:28.614Z,6.13
2019-03-19T07:22:28.625Z,6.27
2019-03-19T07:23:28.671Z,6.27
2019-03-19T07:24:28.601Z,6.37
2019-03-19T07:25:28.603Z,6.41
2019-03-19T07:26:28.552Z,6.42
2019-03-19T07:27:28.570Z,6.37
2019-03-19T07:28:28.581Z,6.42
2019-03-19T07:29:28.662Z,6.47
2019-03-19T07:30:28.534Z,6.48
2019-03-19T07:31:31.232Z,6.35
2019-03-19T07:32:28.495Z,6.24
2019-03-19T07:33:28.521Z,6.18
2019-03-19T07:34:28.471Z,6.21
2019-03-19T07:35:28.476Z,6.07
2019-03-19T07:36:28.449Z,6.05
2019-03-19T07:37:28.447Z,6.01
2019-03-19T07:38:28.422Z,6.05
2019-03-19T07:39:28.411Z,5.98
2019-03-19T07:40:28.441Z,5.98
2019-03-19T07:41:28.395Z,5.95
2019-03-19T07:42:28.382Z,5.94
2019-03-19T07:43:28.374Z,6.01
2019-03-19T07:44:28.361Z,5.90
2019-03-19T07:45:28.377Z,5.97
2019-03-19T07:46:28.346Z,5.97
2019-03-19T07:47:28.341Z,6.04
2019-03-19T07:48:28.314Z,5.97
2019-03-19T07:49:28.304Z,6.03
2019-03-19T07:50:28.311Z,6.01
2019-03-19T07:51:28.297Z,6.04
2019-03-19T07:52:28.337Z,6.04
2019-03-19T07:53:28.259Z,6.07
2019-03-19T07:54:28.249Z,6.11
2019-03-19T07:55:28.274Z,6.01
2019-03-19T07:56:28.263Z,6.13
2019-03-19T07:57:29.590Z,6.24
2019-03-19T07:58:40.590Z,6.19
2019-03-19T07:59:29.195Z,6.19
2019-03-19T08:00:28.203Z,6.26
2019-03-19T08:01:28.195Z,6.27
2019-03-19T08:02:28.160Z,6.37
2019-03-19T08:03:28.257Z,6.35
2019-03-19T08:04:28.197Z,6.45
2019-03-19T08:05:33.061Z,6.53
2019-03-19T08:06:29.113Z,6.53
2019-03-19T08:07:28.111Z,6.47
2019-03-19T08:08:28.099Z,6.62
2019-03-19T08:09:28.132Z,6.65
2019-03-19T08:10:28.096Z,6.60
2019-03-19T08:11:28.244Z,6.65
2019-03-19T08:12:28.117Z,6.67
2019-03-19T08:13:28.225Z,6.88
2019-03-19T08:14:28.072Z,6.91
2019-03-19T08:15:28.050Z,7.00
2019-03-19T08:16:28.177Z,6.98
2019-03-19T08:17:27.998Z,7.08
2019-03-19T08:18:27.983Z,6.99
2019-03-19T08:19:27.974Z,6.99
2019-03-19T08:20:27.987Z,6.84
2019-03-19T08:21:27.962Z,6.78
2019-03-19T08:22:27.940Z,6.70
2019-03-19T08:23:27.927Z,6.77
2019-03-19T08:24:27.922Z,6.75
2019-03-19T08:25:27.930Z,6.77
2019-03-19T08:26:27.913Z,6.80
2019-03-19T08:27:27.895Z,6.88
2019-03-19T08:28:27.873Z,6.96
2019-03-19T08:29:27.875Z,7.03
2019-03-19T08:30:27.849Z,6.99
2019-03-19T08:31:27.846Z,7.08
2019-03-19T08:32:27.845Z,7.16
2019-03-19T08:33:27.865Z,7.14
2019-03-19T08:34:27.806Z,7.14
2019-03-19T08:35:27.792Z,7.16
2019-03-19T08:36:27.816Z,7.18
2019-03-19T08:37:27.790Z,7.16
2019-03-19T08:38:27.766Z,7.20
2019-03-19T08:39:27.748Z,7.20
2019-03-19T08:40:27.734Z,7.17
2019-03-19T08:41:27.804Z,7.10
2019-03-19T08:42:27.716Z,7.08
2019-03-19T08:43:27.720Z,7.03
2019-03-19T08:44:28.171Z,6.98
2019-03-19T08:45:27.690Z,7.07
2019-03-19T08:46:27.707Z,7.08
2019-03-19T08:47:27.657Z,7.03
2019-03-19T08:48:27.657Z,7.08
2019-03-19T08:49:27.691Z,7.11
2019-03-19T08:50:27.618Z,7.18
2019-03-19T08:51:27.631Z,7.18
2019-03-19T08:52:27.671Z,7.23
2019-03-19T08:53:27.594Z,7.17
2019-03-19T08:54:27.582Z,7.34
2019-03-19T08:55:27.573Z,7.38
2019-03-19T08:56:27.566Z,7.34
2019-03-19T08:57:27.551Z,7.36
2019-03-19T08:58:27.531Z,7.39
2019-03-19T08:59:27.529Z,7.52
2019-03-19T09:00:28.319Z,7.50
2019-03-19T09:01:27.514Z,7.53
2019-03-19T09:02:27.488Z,7.44
2019-03-19T09:03:27.478Z,7.60
2019-03-19T09:04:27.476Z,7.54
2019-03-19T09:05:27.462Z,7.62
2019-03-19T09:06:27.474Z,7.54
2019-03-19T09:07:27.428Z,7.56
2019-03-19T09:08:27.426Z,7.53
2019-03-19T09:09:27.407Z,7.56
2019-03-19T09:10:27.410Z,7.56
2019-03-19T09:11:27.398Z,7.60
2019-03-19T09:12:27.384Z,7.49
2019-03-19T09:13:27.366Z,7.49
2019-03-19T09:14:27.349Z,7.47
2019-03-19T09:15:27.335Z,7.52
2019-03-19T09:16:27.335Z,7.57
2019-03-19T09:17:27.339Z,7.64
2019-03-19T09:18:27.304Z,7.59
2019-03-19T09:19:27.300Z,7.70
2019-03-19T09:20:27.282Z,7.66
2019-03-19T09:21:27.281Z,7.72
2019-03-19T09:22:29.906Z,7.64
2019-03-19T09:23:27.249Z,7.70
2019-03-19T09:24:27.238Z,7.70
2019-03-19T09:25:27.252Z,7.79
2019-03-19T09:26:27.215Z,7.76
2019-03-19T09:27:27.220Z,7.73
2019-03-19T09:28:27.194Z,7.79
2019-03-19T09:29:27.175Z,7.76
2019-03-19T09:30:27.167Z,7.86
2019-03-19T09:31:27.158Z,7.78
2019-03-19T09:32:27.187Z,7.86
2019-03-19T09:33:27.145Z,7.73
2019-03-19T09:34:27.126Z,7.72
2019-03-19T09:35:27.157Z,7.76
2019-03-19T09:36:27.114Z,7.64
2019-03-19T09:37:27.091Z,7.59
2019-03-19T09:38:27.099Z,7.68
2019-03-19T09:39:27.085Z,7.66
2019-03-19T09:40:27.058Z,7.64
2019-03-19T09:41:27.047Z,7.62
2019-03-19T09:42:27.036Z,7.66
2019-03-19T09:43:27.053Z,7.64
2019-03-19T09:44:27.022Z,7.64
2019-03-19T09:45:27.049Z,7.69
2019-03-19T09:46:27.001Z,7.60
2019-03-19T09:47:26.975Z,7.64
2019-03-19T09:48:28.315Z,7.62
2019-03-19T09:49:26.958Z,7.72
2019-03-19T09:50:26.952Z,7.79
2019-03-19T09:51:26.941Z,7.88
2019-03-19T09:52:26.931Z,8.04
2019-03-19T09:53:26.933Z,8.12
2019-03-19T09:54:26.895Z,8.16
2019-03-19T09:55:26.890Z,8.41
2019-03-19T09:56:26.882Z,8.64
2019-03-19T09:57:26.867Z,8.85
2019-03-19T09:58:26.907Z,9.05
2019-03-19T09:59:27.490Z,9.06
2019-03-19T10:00:26.833Z,9.05
2019-03-19T10:01:26.836Z,9.08
2019-03-19T10:02:26.841Z,9.19
2019-03-19T10:03:26.824Z,9.34
2019-03-19T10:04:26.861Z,9.61
2019-03-19T10:05:26.772Z,9.52
2019-03-19T10:06:26.776Z,9.39
2019-03-19T10:07:26.765Z,9.28
2019-03-19T10:08:26.756Z,9.29
2019-03-19T10:09:26.727Z,9.11
2019-03-19T10:10:26.769Z,9.16
2019-03-19T10:11:26.731Z,9.24
2019-03-19T10:12:26.711Z,9.25
2019-03-19T10:13:26.750Z,9.11
2019-03-19T10:14:26.684Z,9.22
2019-03-19T10:15:26.675Z,9.05
2019-03-19T10:16:26.678Z,9.10
2019-03-19T10:17:26.638Z,9.21
2019-03-19T10:18:26.643Z,9.16
2019-03-19T10:19:26.652Z,9.19
2019-03-19T10:20:26.606Z,9.08
2019-03-19T10:21:26.591Z,9.06
2019-03-19T10:22:26.592Z,8.95
2019-03-19T10:23:26.575Z,8.95
2019-03-19T10:24:26.593Z,8.98
2019-03-19T10:25:26.554Z,8.95
2019-03-19T10:26:26.540Z,9.02
2019-03-19T10:27:26.528Z,9.19
2019-03-19T10:28:26.517Z,9.91
2019-03-19T10:29:26.531Z,9.83
2019-03-19T10:30:26.500Z,11.12
2019-03-19T10:31:26.491Z,13.27
2019-03-19T10:32:26.474Z,14.97
2019-03-19T10:33:26.471Z,16.17
2019-03-19T10:34:26.517Z,16.00
2019-03-19T10:35:26.443Z,15.44
2019-03-19T10:36:26.430Z,15.76
2019-03-19T10:37:26.423Z,15.91
2019-03-19T10:38:26.437Z,15.73
2019-03-19T10:39:26.415Z,17.26
2019-03-19T10:40:26.388Z,16.65
2019-03-19T10:41:26.373Z,16.91
2019-03-19T10:42:26.358Z,17.27
2019-03-19T10:43:26.353Z,16.43
2019-03-19T10:44:26.384Z,17.49
2019-03-19T10:45:26.352Z,18.33
2019-03-19T10:46:26.363Z,17.53
2019-03-19T10:47:26.305Z,16.91
2019-03-19T10:48:26.296Z,16.34
2019-03-19T10:49:26.290Z,15.97
2019-03-19T10:50:26.295Z,17.22
2019-03-19T10:51:26.264Z,18.68
2019-03-19T10:52:26.273Z,19.86
2019-03-19T10:53:26.238Z,20.60
2019-03-19T10:54:26.233Z,21.21
2019-03-19T10:55:26.309Z,21.65
2019-03-19T10:56:26.220Z,20.18
2019-03-19T10:57:26.206Z,18.60
2019-03-19T10:58:26.184Z,17.53
2019-03-19T10:59:26.273Z,16.62
2019-03-19T11:00:26.228Z,15.97
2019-03-19T11:01:26.155Z,15.21
2019-03-19T11:02:26.142Z,14.85
2019-03-19T11:03:26.153Z,14.37
2019-03-19T11:04:26.125Z,14.18
2019-03-19T11:05:26.142Z,14.37
2019-03-19T11:06:26.139Z,16.54
2019-03-19T11:07:26.109Z,16.61
2019-03-19T11:08:26.083Z,16.05
2019-03-19T11:09:26.083Z,15.40
2019-03-19T11:10:26.098Z,15.02
2019-03-19T11:11:26.131Z,16.99
2019-03-19T11:12:26.025Z,18.63
2019-03-19T11:13:26.052Z,19.84
2019-03-19T11:14:26.017Z,21.05
2019-03-19T11:15:26.034Z,22.04
2019-03-19T11:16:25.982Z,21.84
2019-03-19T11:17:28.364Z,20.69
2019-03-19T11:18:25.987Z,19.62
2019-03-19T11:19:25.952Z,18.71
2019-03-19T11:20:25.972Z,18.25
2019-03-19T11:21:25.939Z,17.49
2019-03-19T11:22:25.938Z,16.79
2019-03-19T11:23:25.906Z,16.20
2019-03-19T11:24:25.904Z,16.54
2019-03-19T11:25:25.886Z,17.68
2019-03-19T11:26:25.952Z,19.54
2019-03-19T11:27:25.872Z,20.97
2019-03-19T11:28:25.849Z,22.08
2019-03-19T11:29:25.864Z,23.05
2019-03-19T11:30:25.853Z,23.84
2019-03-19T11:31:25.844Z,24.47
2019-03-19T11:32:25.811Z,25.10
2019-03-19T11:33:25.833Z,23.83
2019-03-19T11:34:25.788Z,23.13
2019-03-19T11:35:25.779Z,24.17
2019-03-19T11:36:25.786Z,24.57
2019-03-19T11:37:25.763Z,24.85
2019-03-19T11:38:25.766Z,25.53
2019-03-19T11:39:25.737Z,25.99
2019-03-19T11:40:26.317Z,26.55
2019-03-19T11:41:25.755Z,26.57
2019-03-19T11:42:25.727Z,26.04
2019-03-19T11:43:25.700Z,24.82
2019-03-19T11:44:25.687Z,25.69
2019-03-19T11:45:25.676Z,25.70
2019-03-19T11:46:25.695Z,24.77
2019-03-19T11:47:25.666Z,23.71
2019-03-19T11:48:25.650Z,22.77
2019-03-19T11:49:25.641Z,21.35
2019-03-19T11:50:25.619Z,20.28
2019-03-19T11:51:25.604Z,19.37
2019-03-19T11:52:25.643Z,18.43
2019-03-19T11:53:25.588Z,17.49
2019-03-19T11:54:25.577Z,16.96
2019-03-19T11:55:25.559Z,16.28
2019-03-19T11:56:25.552Z,15.90
2019-03-19T11:57:25.559Z,16.08
2019-03-19T11:58:25.544Z,18.41
2019-03-19T11:59:25.515Z,19.04
2019-03-19T12:00:25.508Z,18.81
2019-03-19T12:01:25.502Z,18.77
2019-03-19T12:02:26.402Z,19.59
2019-03-19T12:03:25.473Z,19.18
2019-03-19T12:04:25.461Z,18.37
2019-03-19T12:05:25.448Z,17.70
2019-03-19T12:06:25.478Z,19.09
2019-03-19T12:07:25.451Z,21.15
2019-03-19T12:08:25.424Z,22.66
2019-03-19T12:09:25.429Z,23.51
2019-03-19T12:10:25.396Z,23.73
2019-03-19T12:11:25.391Z,24.78
2019-03-19T12:12:25.395Z,25.40
2019-03-19T12:13:25.365Z,26.23
2019-03-19T12:14:25.386Z,26.67
2019-03-19T12:15:25.349Z,27.33
2019-03-19T12:16:25.379Z,26.07
2019-03-19T12:17:25.336Z,24.08
2019-03-19T12:18:25.309Z,22.75
2019-03-19T12:19:25.295Z,21.32
2019-03-19T12:20:25.286Z,20.22
2019-03-19T12:21:25.298Z,19.18
2019-03-19T12:22:25.289Z,18.12
2019-03-19T12:23:25.261Z,17.26
2019-03-19T12:24:25.247Z,16.53
2019-03-19T12:25:25.242Z,15.83
2019-03-19T12:26:25.224Z,15.19
2019-03-19T12:27:25.236Z,14.53
2019-03-19T12:28:25.203Z,14.07
2019-03-19T12:29:25.197Z,13.68
2019-03-19T12:30:26.545Z,13.29
2019-03-19T12:31:25.172Z,13.11
2019-03-19T12:32:25.199Z,12.94
2019-03-19T12:33:25.145Z,12.73
2019-03-19T12:34:25.139Z,12.60
2019-03-19T12:35:25.119Z,12.45
2019-03-19T12:36:25.111Z,12.32
2019-03-19T12:37:25.116Z,12.18
2019-03-19T12:38:25.105Z,12.20
2019-03-19T12:39:25.096Z,11.95
2019-03-19T12:40:35.915Z,11.83
2019-03-19T12:41:26.057Z,11.80
2019-03-19T12:42:25.048Z,11.65
2019-03-19T12:43:25.051Z,11.53
2019-03-19T12:44:25.072Z,11.54
2019-03-19T12:45:25.014Z,11.47
2019-03-19T12:46:25.001Z,11.44
2019-03-19T12:47:24.988Z,11.33
2019-03-19T12:48:25.005Z,11.33
2019-03-19T12:49:24.962Z,11.11
2019-03-19T12:50:24.959Z,10.93
2019-03-19T12:51:24.964Z,10.92
2019-03-19T12:52:24.953Z,11.20
2019-03-19T12:53:24.941Z,11.69
2019-03-19T12:54:24.907Z,11.50
2019-03-19T12:55:24.900Z,11.30
2019-03-19T12:56:24.881Z,11.10
2019-03-19T12:57:24.875Z,10.96
2019-03-19T12:58:24.892Z,10.95
2019-03-19T12:59:24.876Z,10.77
2019-03-19T13:00:33.631Z,10.71
2019-03-19T13:01:28.468Z,10.65
2019-03-19T13:02:24.821Z,10.62
2019-03-19T13:03:24.849Z,10.62
2019-03-19T13:04:24.796Z,10.59
2019-03-19T13:05:24.786Z,10.52
2019-03-19T13:06:24.796Z,10.46
2019-03-19T13:07:24.765Z,10.52
2019-03-19T13:08:24.777Z,10.45
2019-03-19T13:09:24.766Z,10.41
2019-03-19T13:10:24.730Z,10.41
2019-03-19T13:11:24.721Z,10.35
2019-03-19T13:12:24.711Z,10.34
2019-03-19T13:13:24.709Z,10.35